sensor_id;sensor_type;location;lat;lon;timestamp;temperature;humidity
1405;DHT22;697;51.114;6.542;2022-10-17T00:02:22;18.10;97.50
1405;DHT22;697;51.114;6.542;2022-10-17T00:04:49;18.10;97.60
1405;DHT22;697;51.114;6.542;2022-10-17T00:07:15;18.10;97.70
1405;DHT22;697;51.114;6.542;2022-10-17T00:09:42;18.10;97.80
1405;DHT22;697;51.114;6.542;2022-10-17T00:12:09;18.10;97.80
1405;DHT22;697;51.114;6.542;2022-10-17T00:14:38;18.10;97.80
1405;DHT22;697;51.114;6.542;2022-10-17T00:17:04;18.10;97.90
1405;DHT22;697;51.114;6.542;2022-10-17T00:19:31;18.10;97.90
1405;DHT22;697;51.114;6.542;2022-10-17T00:21:58;18.10;98.00
1405;DHT22;697;51.114;6.542;2022-10-17T00:24:25;18.10;98.00
1405;DHT22;697;51.114;6.542;2022-10-17T00:26:51;18.10;98.00
1405;DHT22;697;51.114;6.542;2022-10-17T00:29:18;18.10;98.00
1405;DHT22;697;51.114;6.542;2022-10-17T00:31:46;18.10;98.00
1405;DHT22;697;51.114;6.542;2022-10-17T00:34:13;18.10;97.90
1405;DHT22;697;51.114;6.542;2022-10-17T00:36:40;18.00;97.70
1405;DHT22;697;51.114;6.542;2022-10-17T00:39:07;18.00;97.50
1405;DHT22;697;51.114;6.542;2022-10-17T00:41:34;18.00;97.60
1405;DHT22;697;51.114;6.542;2022-10-17T00:44:03;18.00;97.50
1405;DHT22;697;51.114;6.542;2022-10-17T00:46:32;18.00;97.50
1405;DHT22;697;51.114;6.542;2022-10-17T00:49:03;17.90;97.50
1405;DHT22;697;51.114;6.542;2022-10-17T00:51:34;17.90;97.40
1405;DHT22;697;51.114;6.542;2022-10-17T00:54:02;17.90;97.30
1405;DHT22;697;51.114;6.542;2022-10-17T00:56:30;17.90;97.60
1405;DHT22;697;51.114;6.542;2022-10-17T00:58:57;17.80;97.10
1405;DHT22;697;51.114;6.542;2022-10-17T01:01:24;17.80;97.00
1405;DHT22;697;51.114;6.542;2022-10-17T01:03:51;17.80;97.00
1405;DHT22;697;51.114;6.542;2022-10-17T01:06:19;17.80;97.10
1405;DHT22;697;51.114;6.542;2022-10-17T01:08:46;17.80;97.10
1405;DHT22;697;51.114;6.542;2022-10-17T01:11:23;17.70;97.00
1405;DHT22;697;51.114;6.542;2022-10-17T01:13:59;17.70;97.10
1405;DHT22;697;51.114;6.542;2022-10-17T01:16:37;17.70;97.20
1405;DHT22;697;51.114;6.542;2022-10-17T01:19:18;17.70;97.50
1405;DHT22;697;51.114;6.542;2022-10-17T01:21:55;17.70;97.10
1405;DHT22;697;51.114;6.542;2022-10-17T01:24:46;17.70;97.40
1405;DHT22;697;51.114;6.542;2022-10-17T01:30:51;17.70;99.00
1405;DHT22;697;51.114;6.542;2022-10-17T01:33:34;17.70;99.30
1405;DHT22;697;51.114;6.542;2022-10-17T01:36:07;17.70;99.50
1405;DHT22;697;51.114;6.542;2022-10-17T01:38:42;17.70;99.70
1405;DHT22;697;51.114;6.542;2022-10-17T01:41:14;17.70;99.80
1405;DHT22;697;51.114;6.542;2022-10-17T01:43:50;17.70;99.80
1405;DHT22;697;51.114;6.542;2022-10-17T01:46:23;17.70;99.80
1405;DHT22;697;51.114;6.542;2022-10-17T01:48:53;17.70;99.70
1405;DHT22;697;51.114;6.542;2022-10-17T01:51:22;17.70;99.50
1405;DHT22;697;51.114;6.542;2022-10-17T01:53:53;17.70;99.20
1405;DHT22;697;51.114;6.542;2022-10-17T01:56:23;17.70;99.00
1405;DHT22;697;51.114;6.542;2022-10-17T01:58:55;17.70;98.80
1405;DHT22;697;51.114;6.542;2022-10-17T02:01:25;17.70;98.60
1405;DHT22;697;51.114;6.542;2022-10-17T02:03:55;17.70;98.70
1405;DHT22;697;51.114;6.542;2022-10-17T02:06:22;17.70;98.40
1405;DHT22;697;51.114;6.542;2022-10-17T02:08:50;17.70;98.30
1405;DHT22;697;51.114;6.542;2022-10-17T02:11:19;17.70;98.00
1405;DHT22;697;51.114;6.542;2022-10-17T02:14:04;17.70;97.90
1405;DHT22;697;51.114;6.542;2022-10-17T02:16:42;17.70;97.90
1405;DHT22;697;51.114;6.542;2022-10-17T02:19:40;17.70;98.50
1405;DHT22;697;51.114;6.542;2022-10-17T02:22:17;17.70;99.20
1405;DHT22;697;51.114;6.542;2022-10-17T02:24:56;17.70;99.90
1405;DHT22;697;51.114;6.542;2022-10-17T02:27:32;17.70;99.90
1405;DHT22;697;51.114;6.542;2022-10-17T02:30:05;17.70;99.90
1405;DHT22;697;51.114;6.542;2022-10-17T02:32:40;17.70;99.90
1405;DHT22;697;51.114;6.542;2022-10-17T02:35:12;17.70;99.90
1405;DHT22;697;51.114;6.542;2022-10-17T02:37:41;17.70;99.90
1405;DHT22;697;51.114;6.542;2022-10-17T02:40:10;17.70;99.90
1405;DHT22;697;51.114;6.542;2022-10-17T02:42:39;17.70;99.90
1405;DHT22;697;51.114;6.542;2022-10-17T02:45:08;17.70;99.90
1405;DHT22;697;51.114;6.542;2022-10-17T02:47:43;17.70;99.90
1405;DHT22;697;51.114;6.542;2022-10-17T02:50:14;17.70;99.90
1405;DHT22;697;51.114;6.542;2022-10-17T02:52:45;17.70;99.90
1405;DHT22;697;51.114;6.542;2022-10-17T02:55:17;17.70;99.90
1405;DHT22;697;51.114;6.542;2022-10-17T02:57:47;17.70;99.90
1405;DHT22;697;51.114;6.542;2022-10-17T03:00:16;17.70;99.50
1405;DHT22;697;51.114;6.542;2022-10-17T03:02:47;17.70;99.20
1405;DHT22;697;51.114;6.542;2022-10-17T03:05:17;17.70;99.00
1405;DHT22;697;51.114;6.542;2022-10-17T03:07:44;17.70;99.10
1405;DHT22;697;51.114;6.542;2022-10-17T03:10:11;17.70;99.10
1405;DHT22;697;51.114;6.542;2022-10-17T03:12:38;17.60;98.90
1405;DHT22;697;51.114;6.542;2022-10-17T03:15:06;17.60;98.80
1405;DHT22;697;51.114;6.542;2022-10-17T03:17:34;17.60;98.80
1405;DHT22;697;51.114;6.542;2022-10-17T03:20:03;17.60;98.70
1405;DHT22;697;51.114;6.542;2022-10-17T03:22:30;17.60;98.80
1405;DHT22;697;51.114;6.542;2022-10-17T03:24:57;17.60;98.90
1405;DHT22;697;51.114;6.542;2022-10-17T03:27:24;17.60;98.90
1405;DHT22;697;51.114;6.542;2022-10-17T03:29:50;17.60;99.00
1405;DHT22;697;51.114;6.542;2022-10-17T03:32:17;17.60;99.10
1405;DHT22;697;51.114;6.542;2022-10-17T03:34:44;17.50;99.00
1405;DHT22;697;51.114;6.542;2022-10-17T03:37:12;17.60;99.20
1405;DHT22;697;51.114;6.542;2022-10-17T03:39:39;17.60;99.20
1405;DHT22;697;51.114;6.542;2022-10-17T03:42:06;17.60;99.00
1405;DHT22;697;51.114;6.542;2022-10-17T03:44:32;17.50;99.10
1405;DHT22;697;51.114;6.542;2022-10-17T03:46:59;17.60;99.40
1405;DHT22;697;51.114;6.542;2022-10-17T03:49:26;17.60;99.90
1405;DHT22;697;51.114;6.542;2022-10-17T03:51:53;17.60;99.90
1405;DHT22;697;51.114;6.542;2022-10-17T03:54:21;17.70;99.90
1405;DHT22;697;51.114;6.542;2022-10-17T03:56:47;17.70;99.90
1405;DHT22;697;51.114;6.542;2022-10-17T03:59:15;17.60;99.90
1405;DHT22;697;51.114;6.542;2022-10-17T04:01:42;17.70;99.90
1405;DHT22;697;51.114;6.542;2022-10-17T04:04:09;17.70;99.90
1405;DHT22;697;51.114;6.542;2022-10-17T04:06:36;17.70;99.90
1405;DHT22;697;51.114;6.542;2022-10-17T04:09:04;17.70;99.90
1405;DHT22;697;51.114;6.542;2022-10-17T04:11:32;17.80;99.90
1405;DHT22;697;51.114;6.542;2022-10-17T04:13:59;17.80;99.90
1405;DHT22;697;51.114;6.542;2022-10-17T04:16:26;17.80;99.90
1405;DHT22;697;51.114;6.542;2022-10-17T04:18:54;17.80;99.90
1405;DHT22;697;51.114;6.542;2022-10-17T04:21:21;17.80;99.90
1405;DHT22;697;51.114;6.542;2022-10-17T04:23:52;17.80;99.90
1405;DHT22;697;51.114;6.542;2022-10-17T04:26:19;17.80;99.90
1405;DHT22;697;51.114;6.542;2022-10-17T04:28:47;17.80;99.90
1405;DHT22;697;51.114;6.542;2022-10-17T04:31:14;17.80;99.90
1405;DHT22;697;51.114;6.542;2022-10-17T04:33:41;17.80;99.90
1405;DHT22;697;51.114;6.542;2022-10-17T04:36:11;17.80;99.90
1405;DHT22;697;51.114;6.542;2022-10-17T04:38:39;17.80;99.90
1405;DHT22;697;51.114;6.542;2022-10-17T04:41:08;17.80;99.90
1405;DHT22;697;51.114;6.542;2022-10-17T04:43:36;17.80;99.90
1405;DHT22;697;51.114;6.542;2022-10-17T04:46:07;17.80;99.90
1405;DHT22;697;51.114;6.542;2022-10-17T04:48:34;17.80;99.90
1405;DHT22;697;51.114;6.542;2022-10-17T04:51:02;17.80;99.90
1405;DHT22;697;51.114;6.542;2022-10-17T04:53:30;17.80;99.90
1405;DHT22;697;51.114;6.542;2022-10-17T04:55:57;17.80;99.90
1405;DHT22;697;51.114;6.542;2022-10-17T04:58:24;17.80;99.90
1405;DHT22;697;51.114;6.542;2022-10-17T05:00:51;17.80;99.90
1405;DHT22;697;51.114;6.542;2022-10-17T05:03:19;17.80;99.90
1405;DHT22;697;51.114;6.542;2022-10-17T05:05:46;17.70;99.80
1405;DHT22;697;51.114;6.542;2022-10-17T05:08:12;17.70;99.70
1405;DHT22;697;51.114;6.542;2022-10-17T05:10:41;17.70;99.70
1405;DHT22;697;51.114;6.542;2022-10-17T05:13:09;17.70;99.70
1405;DHT22;697;51.114;6.542;2022-10-17T05:15:36;17.70;99.60
1405;DHT22;697;51.114;6.542;2022-10-17T05:18:04;17.70;99.50
1405;DHT22;697;51.114;6.542;2022-10-17T05:20:32;17.70;99.40
1405;DHT22;697;51.114;6.542;2022-10-17T05:23:00;17.70;99.30
1405;DHT22;697;51.114;6.542;2022-10-17T05:25:27;17.70;99.60
1405;DHT22;697;51.114;6.542;2022-10-17T05:27:53;17.70;99.70
1405;DHT22;697;51.114;6.542;2022-10-17T05:30:20;17.70;99.80
1405;DHT22;697;51.114;6.542;2022-10-17T05:32:47;17.70;99.80
1405;DHT22;697;51.114;6.542;2022-10-17T05:35:14;17.70;99.80
1405;DHT22;697;51.114;6.542;2022-10-17T05:37:42;17.60;99.90
1405;DHT22;697;51.114;6.542;2022-10-17T05:40:09;17.60;99.90
1405;DHT22;697;51.114;6.542;2022-10-17T05:42:36;17.60;99.90
1405;DHT22;697;51.114;6.542;2022-10-17T05:45:04;17.60;99.80
1405;DHT22;697;51.114;6.542;2022-10-17T05:47:31;17.60;99.70
1405;DHT22;697;51.114;6.542;2022-10-17T05:49:58;17.60;99.50
1405;DHT22;697;51.114;6.542;2022-10-17T05:52:24;17.50;99.20
1405;DHT22;697;51.114;6.542;2022-10-17T05:54:52;17.50;99.10
1405;DHT22;697;51.114;6.542;2022-10-17T05:57:19;17.50;99.00
1405;DHT22;697;51.114;6.542;2022-10-17T05:59:46;17.40;99.00
1405;DHT22;697;51.114;6.542;2022-10-17T06:02:13;17.50;98.90
1405;DHT22;697;51.114;6.542;2022-10-17T06:04:39;17.50;98.80
1405;DHT22;697;51.114;6.542;2022-10-17T06:07:10;17.40;98.80
1405;DHT22;697;51.114;6.542;2022-10-17T06:09:37;17.40;98.90
1405;DHT22;697;51.114;6.542;2022-10-17T06:12:06;17.40;99.10
1405;DHT22;697;51.114;6.542;2022-10-17T06:14:33;17.40;99.10
1405;DHT22;697;51.114;6.542;2022-10-17T06:17:00;17.50;99.10
1405;DHT22;697;51.114;6.542;2022-10-17T06:19:27;17.40;99.00
1405;DHT22;697;51.114;6.542;2022-10-17T06:21:54;17.50;99.10
1405;DHT22;697;51.114;6.542;2022-10-17T06:24:20;17.50;99.10
1405;DHT22;697;51.114;6.542;2022-10-17T06:26:47;17.50;99.00
1405;DHT22;697;51.114;6.542;2022-10-17T06:29:17;17.50;98.90
1405;DHT22;697;51.114;6.542;2022-10-17T06:31:43;17.50;98.70
1405;DHT22;697;51.114;6.542;2022-10-17T06:34:10;17.50;98.70
1405;DHT22;697;51.114;6.542;2022-10-17T06:36:37;17.50;98.60
1405;DHT22;697;51.114;6.542;2022-10-17T06:39:04;17.50;98.60
1405;DHT22;697;51.114;6.542;2022-10-17T06:41:30;17.50;98.60
1405;DHT22;697;51.114;6.542;2022-10-17T06:43:57;17.60;98.70
1405;DHT22;697;51.114;6.542;2022-10-17T06:46:25;17.60;98.70
1405;DHT22;697;51.114;6.542;2022-10-17T06:48:54;17.60;98.60
1405;DHT22;697;51.114;6.542;2022-10-17T06:51:20;17.60;98.50
1405;DHT22;697;51.114;6.542;2022-10-17T06:53:47;17.70;98.80
1405;DHT22;697;51.114;6.542;2022-10-17T06:56:14;17.70;98.90
1405;DHT22;697;51.114;6.542;2022-10-17T06:58:41;17.70;99.00
1405;DHT22;697;51.114;6.542;2022-10-17T07:01:09;17.80;99.20
1405;DHT22;697;51.114;6.542;2022-10-17T07:03:38;17.80;99.40
1405;DHT22;697;51.114;6.542;2022-10-17T07:06:05;17.90;99.40
1405;DHT22;697;51.114;6.542;2022-10-17T07:08:32;17.90;99.40
1405;DHT22;697;51.114;6.542;2022-10-17T07:11:07;18.00;99.50
1405;DHT22;697;51.114;6.542;2022-10-17T07:13:34;18.00;99.30
1405;DHT22;697;51.114;6.542;2022-10-17T07:16:01;18.10;99.30
1405;DHT22;697;51.114;6.542;2022-10-17T07:18:28;18.10;99.50
1405;DHT22;697;51.114;6.542;2022-10-17T07:20:56;18.20;99.50
1405;DHT22;697;51.114;6.542;2022-10-17T07:23:23;18.30;99.40
1405;DHT22;697;51.114;6.542;2022-10-17T07:25:50;18.30;99.20
1405;DHT22;697;51.114;6.542;2022-10-17T07:28:18;18.40;99.20
1405;DHT22;697;51.114;6.542;2022-10-17T07:30:44;18.40;99.20
1405;DHT22;697;51.114;6.542;2022-10-17T07:33:11;18.50;99.20
1405;DHT22;697;51.114;6.542;2022-10-17T07:35:38;18.50;99.30
1405;DHT22;697;51.114;6.542;2022-10-17T07:38:07;18.50;99.30
1405;DHT22;697;51.114;6.542;2022-10-17T07:40:34;18.60;99.30
1405;DHT22;697;51.114;6.542;2022-10-17T07:43:01;18.60;99.30
1405;DHT22;697;51.114;6.542;2022-10-17T07:45:28;18.60;99.20
1405;DHT22;697;51.114;6.542;2022-10-17T07:47:55;18.70;99.20
1405;DHT22;697;51.114;6.542;2022-10-17T07:50:22;18.70;99.10
1405;DHT22;697;51.114;6.542;2022-10-17T07:52:49;18.70;99.10
1405;DHT22;697;51.114;6.542;2022-10-17T07:55:17;18.80;99.20
1405;DHT22;697;51.114;6.542;2022-10-17T07:57:44;18.80;99.20
1405;DHT22;697;51.114;6.542;2022-10-17T08:00:11;18.90;99.20
1405;DHT22;697;51.114;6.542;2022-10-17T08:02:38;18.90;99.10
1405;DHT22;697;51.114;6.542;2022-10-17T08:05:05;19.00;99.20
1405;DHT22;697;51.114;6.542;2022-10-17T08:07:32;19.10;99.10
1405;DHT22;697;51.114;6.542;2022-10-17T08:09:59;19.10;98.90
1405;DHT22;697;51.114;6.542;2022-10-17T08:12:27;19.20;99.00
1405;DHT22;697;51.114;6.542;2022-10-17T08:14:56;19.30;99.10
1405;DHT22;697;51.114;6.542;2022-10-17T08:17:24;19.30;99.00
1405;DHT22;697;51.114;6.542;2022-10-17T08:19:51;19.40;99.00
1405;DHT22;697;51.114;6.542;2022-10-17T08:22:17;19.50;98.90
1405;DHT22;697;51.114;6.542;2022-10-17T08:24:44;19.50;98.70
1405;DHT22;697;51.114;6.542;2022-10-17T08:27:11;19.60;98.60
1405;DHT22;697;51.114;6.542;2022-10-17T08:29:40;19.70;98.10
1405;DHT22;697;51.114;6.542;2022-10-17T08:32:07;19.80;97.70
1405;DHT22;697;51.114;6.542;2022-10-17T08:34:34;19.90;97.60
1405;DHT22;697;51.114;6.542;2022-10-17T08:37:01;20.00;97.30
1405;DHT22;697;51.114;6.542;2022-10-17T08:39:28;20.20;97.00
1405;DHT22;697;51.114;6.542;2022-10-17T08:42:04;20.30;96.80
1405;DHT22;697;51.114;6.542;2022-10-17T08:44:41;20.40;96.70
1405;DHT22;697;51.114;6.542;2022-10-17T08:47:14;20.50;96.60
1405;DHT22;697;51.114;6.542;2022-10-17T08:49:46;20.60;96.40
1405;DHT22;697;51.114;6.542;2022-10-17T08:52:20;20.80;96.10
1405;DHT22;697;51.114;6.542;2022-10-17T08:54:50;20.90;95.10
1405;DHT22;697;51.114;6.542;2022-10-17T08:57:16;20.90;95.00
1405;DHT22;697;51.114;6.542;2022-10-17T08:59:49;21.00;95.00
1405;DHT22;697;51.114;6.542;2022-10-17T09:02:34;21.20;94.70
1405;DHT22;697;51.114;6.542;2022-10-17T09:05:28;21.30;94.00
1405;DHT22;697;51.114;6.542;2022-10-17T09:08:03;21.40;93.00
1405;DHT22;697;51.114;6.542;2022-10-17T09:10:37;21.50;92.40
1405;DHT22;697;51.114;6.542;2022-10-17T09:13:18;21.50;92.10
1405;DHT22;697;51.114;6.542;2022-10-17T09:15:59;21.60;92.10
1405;DHT22;697;51.114;6.542;2022-10-17T09:18:31;21.60;91.60
1405;DHT22;697;51.114;6.542;2022-10-17T09:21:00;21.70;91.40
1405;DHT22;697;51.114;6.542;2022-10-17T09:23:34;21.70;91.10
1405;DHT22;697;51.114;6.542;2022-10-17T09:26:04;21.70;91.10
1405;DHT22;697;51.114;6.542;2022-10-17T09:28:33;21.60;91.20
1405;DHT22;697;51.114;6.542;2022-10-17T09:31:03;21.60;91.30
1405;DHT22;697;51.114;6.542;2022-10-17T09:33:36;21.50;91.60
1405;DHT22;697;51.114;6.542;2022-10-17T09:36:07;21.40;91.70
1405;DHT22;697;51.114;6.542;2022-10-17T09:38:39;21.50;91.80
1405;DHT22;697;51.114;6.542;2022-10-17T09:41:15;21.40;91.60
1405;DHT22;697;51.114;6.542;2022-10-17T09:43:42;21.50;91.60
1405;DHT22;697;51.114;6.542;2022-10-17T09:46:16;21.50;91.70
1405;DHT22;697;51.114;6.542;2022-10-17T09:48:46;21.40;91.60
1405;DHT22;697;51.114;6.542;2022-10-17T09:51:15;21.40;91.90
1405;DHT22;697;51.114;6.542;2022-10-17T09:53:45;21.30;91.90
1405;DHT22;697;51.114;6.542;2022-10-17T09:56:14;21.30;92.10
1405;DHT22;697;51.114;6.542;2022-10-17T09:58:43;21.20;92.30
1405;DHT22;697;51.114;6.542;2022-10-17T10:01:22;21.10;92.40
1405;DHT22;697;51.114;6.542;2022-10-17T10:04:07;21.10;92.50
1405;DHT22;697;51.114;6.542;2022-10-17T10:06:34;21.10;92.60
1405;DHT22;697;51.114;6.542;2022-10-17T10:09:02;21.10;92.70
1405;DHT22;697;51.114;6.542;2022-10-17T10:11:45;21.10;92.70
1405;DHT22;697;51.114;6.542;2022-10-17T10:14:29;21.10;92.70
1405;DHT22;697;51.114;6.542;2022-10-17T10:17:00;21.00;92.70
1405;DHT22;697;51.114;6.542;2022-10-17T10:19:28;21.10;93.10
1405;DHT22;697;51.114;6.542;2022-10-17T10:21:57;21.20;92.80
1405;DHT22;697;51.114;6.542;2022-10-17T10:24:24;21.30;92.70
1405;DHT22;697;51.114;6.542;2022-10-17T10:26:53;21.40;92.60
1405;DHT22;697;51.114;6.542;2022-10-17T10:29:25;21.40;92.50
1405;DHT22;697;51.114;6.542;2022-10-17T10:31:53;21.50;92.40
1405;DHT22;697;51.114;6.542;2022-10-17T10:34:23;21.60;92.30
1405;DHT22;697;51.114;6.542;2022-10-17T10:36:55;21.70;92.20
1405;DHT22;697;51.114;6.542;2022-10-17T10:39:32;21.80;92.00
1405;DHT22;697;51.114;6.542;2022-10-17T10:42:01;21.80;91.90
1405;DHT22;697;51.114;6.542;2022-10-17T10:44:30;21.90;92.10
1405;DHT22;697;51.114;6.542;2022-10-17T10:47:18;21.90;92.10
1405;DHT22;697;51.114;6.542;2022-10-17T10:49:47;21.90;92.10
1405;DHT22;697;51.114;6.542;2022-10-17T10:52:26;21.90;91.90
1405;DHT22;697;51.114;6.542;2022-10-17T10:55:02;21.90;92.10
1405;DHT22;697;51.114;6.542;2022-10-17T10:57:32;21.90;92.40
1405;DHT22;697;51.114;6.542;2022-10-17T11:00:05;21.90;93.10
1405;DHT22;697;51.114;6.542;2022-10-17T11:02:37;21.90;93.10
1405;DHT22;697;51.114;6.542;2022-10-17T11:05:13;21.90;93.60
1405;DHT22;697;51.114;6.542;2022-10-17T11:07:47;21.90;93.80
1405;DHT22;697;51.114;6.542;2022-10-17T11:10:21;21.90;93.80
1405;DHT22;697;51.114;6.542;2022-10-17T11:12:53;21.90;93.80
1405;DHT22;697;51.114;6.542;2022-10-17T11:15:26;21.90;93.70
1405;DHT22;697;51.114;6.542;2022-10-17T11:17:57;21.80;93.60
1405;DHT22;697;51.114;6.542;2022-10-17T11:20:32;21.80;93.60
1405;DHT22;697;51.114;6.542;2022-10-17T11:23:14;21.80;93.80
1405;DHT22;697;51.114;6.542;2022-10-17T11:25:44;21.80;93.40
1405;DHT22;697;51.114;6.542;2022-10-17T11:28:15;21.70;93.30
1405;DHT22;697;51.114;6.542;2022-10-17T11:30:47;21.70;93.00
1405;DHT22;697;51.114;6.542;2022-10-17T11:33:24;21.70;92.90
1405;DHT22;697;51.114;6.542;2022-10-17T11:35:59;21.80;92.90
1405;DHT22;697;51.114;6.542;2022-10-17T11:38:38;21.80;92.60
1405;DHT22;697;51.114;6.542;2022-10-17T11:41:11;21.80;92.30
1405;DHT22;697;51.114;6.542;2022-10-17T11:43:44;21.80;92.30
1405;DHT22;697;51.114;6.542;2022-10-17T11:46:15;21.80;92.40
1405;DHT22;697;51.114;6.542;2022-10-17T11:48:54;21.80;92.40
1405;DHT22;697;51.114;6.542;2022-10-17T11:51:23;21.80;92.20
1405;DHT22;697;51.114;6.542;2022-10-17T11:53:54;21.70;92.20
1405;DHT22;697;51.114;6.542;2022-10-17T11:56:27;21.70;92.30
1405;DHT22;697;51.114;6.542;2022-10-17T11:58:59;21.70;92.20
1405;DHT22;697;51.114;6.542;2022-10-17T12:01:34;21.60;92.30
1405;DHT22;697;51.114;6.542;2022-10-17T12:04:18;21.60;92.50
1405;DHT22;697;51.114;6.542;2022-10-17T12:06:57;21.50;92.50
1405;DHT22;697;51.114;6.542;2022-10-17T12:09:31;21.50;92.60
1405;DHT22;697;51.114;6.542;2022-10-17T12:12:02;21.50;92.80
1405;DHT22;697;51.114;6.542;2022-10-17T12:14:38;21.40;93.00
1405;DHT22;697;51.114;6.542;2022-10-17T12:17:29;21.40;92.70
1405;DHT22;697;51.114;6.542;2022-10-17T12:20:27;21.40;92.60
1405;DHT22;697;51.114;6.542;2022-10-17T12:25:47;21.40;92.70
1405;DHT22;697;51.114;6.542;2022-10-17T12:28:16;21.30;92.70
1405;DHT22;697;51.114;6.542;2022-10-17T12:30:56;21.30;92.60
1405;DHT22;697;51.114;6.542;2022-10-17T12:33:34;21.30;92.80
1405;DHT22;697;51.114;6.542;2022-10-17T12:42:48;21.30;93.20
1405;DHT22;697;51.114;6.542;2022-10-17T12:45:43;21.30;93.40
1405;DHT22;697;51.114;6.542;2022-10-17T12:48:10;21.30;93.10
1405;DHT22;697;51.114;6.542;2022-10-17T12:51:01;21.40;92.90
1405;DHT22;697;51.114;6.542;2022-10-17T12:53:35;21.40;93.00
1405;DHT22;697;51.114;6.542;2022-10-17T12:56:05;21.40;93.00
1405;DHT22;697;51.114;6.542;2022-10-17T12:58:33;21.40;92.90
1405;DHT22;697;51.114;6.542;2022-10-17T13:01:00;21.40;92.60
1405;DHT22;697;51.114;6.542;2022-10-17T13:03:30;21.40;92.40
1405;DHT22;697;51.114;6.542;2022-10-17T13:06:01;21.40;93.00
1405;DHT22;697;51.114;6.542;2022-10-17T13:08:30;21.40;92.80
1405;DHT22;697;51.114;6.542;2022-10-17T13:10:57;21.40;92.30
1405;DHT22;697;51.114;6.542;2022-10-17T13:13:30;21.30;92.60
1405;DHT22;697;51.114;6.542;2022-10-17T13:16:02;21.30;92.70
1405;DHT22;697;51.114;6.542;2022-10-17T13:18:29;21.30;92.70
1405;DHT22;697;51.114;6.542;2022-10-17T13:20:58;21.30;92.70
1405;DHT22;697;51.114;6.542;2022-10-17T13:23:29;21.30;92.90
1405;DHT22;697;51.114;6.542;2022-10-17T13:26:12;21.30;92.80
1405;DHT22;697;51.114;6.542;2022-10-17T13:28:39;21.30;92.60
1405;DHT22;697;51.114;6.542;2022-10-17T13:31:27;21.30;92.70
1405;DHT22;697;51.114;6.542;2022-10-17T13:33:56;21.40;93.10
1405;DHT22;697;51.114;6.542;2022-10-17T13:36:23;21.30;92.80
1405;DHT22;697;51.114;6.542;2022-10-17T13:38:51;21.30;92.70
1405;DHT22;697;51.114;6.542;2022-10-17T13:41:24;21.30;92.80
1405;DHT22;697;51.114;6.542;2022-10-17T13:43:52;21.40;92.90
1405;DHT22;697;51.114;6.542;2022-10-17T13:46:26;21.30;92.60
1405;DHT22;697;51.114;6.542;2022-10-17T13:48:54;21.30;92.80
1405;DHT22;697;51.114;6.542;2022-10-17T13:51:22;21.30;92.70
1405;DHT22;697;51.114;6.542;2022-10-17T13:53:49;21.40;92.70
1405;DHT22;697;51.114;6.542;2022-10-17T13:56:18;21.40;92.50
1405;DHT22;697;51.114;6.542;2022-10-17T13:58:49;21.60;92.60
1405;DHT22;697;51.114;6.542;2022-10-17T14:01:17;21.70;92.30
1405;DHT22;697;51.114;6.542;2022-10-17T14:03:47;21.80;92.00
1405;DHT22;697;51.114;6.542;2022-10-17T14:06:16;21.80;92.00
1405;DHT22;697;51.114;6.542;2022-10-17T14:08:51;21.80;91.70
1405;DHT22;697;51.114;6.542;2022-10-17T14:11:23;21.90;91.90
1405;DHT22;697;51.114;6.542;2022-10-17T14:13:52;21.90;91.70
1405;DHT22;697;51.114;6.542;2022-10-17T14:16:20;21.80;91.90
1405;DHT22;697;51.114;6.542;2022-10-17T14:18:50;21.70;91.70
1405;DHT22;697;51.114;6.542;2022-10-17T14:21:19;21.70;91.60
1405;DHT22;697;51.114;6.542;2022-10-17T14:23:46;21.80;91.90
1405;DHT22;697;51.114;6.542;2022-10-17T14:26:16;21.80;91.90
1405;DHT22;697;51.114;6.542;2022-10-17T14:28:46;21.90;92.00
1405;DHT22;697;51.114;6.542;2022-10-17T14:31:28;21.80;91.80
1405;DHT22;697;51.114;6.542;2022-10-17T14:33:56;21.80;91.80
1405;DHT22;697;51.114;6.542;2022-10-17T14:36:34;21.80;91.90
1405;DHT22;697;51.114;6.542;2022-10-17T14:39:04;21.80;92.20
1405;DHT22;697;51.114;6.542;2022-10-17T14:41:33;21.80;92.10
1405;DHT22;697;51.114;6.542;2022-10-17T14:44:03;21.80;92.10
1405;DHT22;697;51.114;6.542;2022-10-17T14:46:31;21.80;92.10
1405;DHT22;697;51.114;6.542;2022-10-17T14:49:05;21.80;92.20
1405;DHT22;697;51.114;6.542;2022-10-17T14:51:32;21.80;92.00
1405;DHT22;697;51.114;6.542;2022-10-17T14:54:02;21.80;92.50
1405;DHT22;697;51.114;6.542;2022-10-17T14:56:36;21.70;92.70
1405;DHT22;697;51.114;6.542;2022-10-17T14:59:03;21.70;93.10
1405;DHT22;697;51.114;6.542;2022-10-17T15:01:31;21.60;93.20
1405;DHT22;697;51.114;6.542;2022-10-17T15:03:58;21.60;93.40
1405;DHT22;697;51.114;6.542;2022-10-17T15:06:28;21.50;93.70
1405;DHT22;697;51.114;6.542;2022-10-17T15:08:55;21.40;93.90
1405;DHT22;697;51.114;6.542;2022-10-17T15:11:22;21.40;94.30
1405;DHT22;697;51.114;6.542;2022-10-17T15:13:49;21.30;94.60
1405;DHT22;697;51.114;6.542;2022-10-17T15:16:19;21.30;94.90
1405;DHT22;697;51.114;6.542;2022-10-17T15:18:46;21.30;95.20
1405;DHT22;697;51.114;6.542;2022-10-17T15:21:14;21.20;95.50
1405;DHT22;697;51.114;6.542;2022-10-17T15:23:43;21.20;95.60
1405;DHT22;697;51.114;6.542;2022-10-17T15:26:14;21.20;95.90
1405;DHT22;697;51.114;6.542;2022-10-17T15:28:41;21.10;96.00
1405;DHT22;697;51.114;6.542;2022-10-17T15:31:11;21.10;96.20
1405;DHT22;697;51.114;6.542;2022-10-17T15:33:37;21.10;96.30
1405;DHT22;697;51.114;6.542;2022-10-17T15:36:05;21.00;96.40
1405;DHT22;697;51.114;6.542;2022-10-17T15:38:43;20.90;96.70
1405;DHT22;697;51.114;6.542;2022-10-17T15:41:10;20.80;97.00
1405;DHT22;697;51.114;6.542;2022-10-17T15:43:37;20.80;97.40
1405;DHT22;697;51.114;6.542;2022-10-17T15:46:09;20.70;97.90
1405;DHT22;697;51.114;6.542;2022-10-17T15:48:37;20.70;98.10
1405;DHT22;697;51.114;6.542;2022-10-17T15:51:04;20.60;98.60
1405;DHT22;697;51.114;6.542;2022-10-17T15:53:30;20.50;99.00
1405;DHT22;697;51.114;6.542;2022-10-17T15:55:58;20.40;99.20
1405;DHT22;697;51.114;6.542;2022-10-17T15:58:27;20.40;99.50
1405;DHT22;697;51.114;6.542;2022-10-17T16:00:57;20.30;99.80
1405;DHT22;697;51.114;6.542;2022-10-17T16:03:24;20.30;99.80
1405;DHT22;697;51.114;6.542;2022-10-17T16:05:52;20.20;99.90
1405;DHT22;697;51.114;6.542;2022-10-17T16:08:19;20.20;99.90
1405;DHT22;697;51.114;6.542;2022-10-17T16:10:46;20.10;99.90
1405;DHT22;697;51.114;6.542;2022-10-17T16:13:16;20.00;99.90
1405;DHT22;697;51.114;6.542;2022-10-17T16:15:43;20.00;99.90
1405;DHT22;697;51.114;6.542;2022-10-17T16:18:10;20.00;99.90
1405;DHT22;697;51.114;6.542;2022-10-17T16:20:37;19.90;99.90
1405;DHT22;697;51.114;6.542;2022-10-17T16:23:04;19.90;99.90
1405;DHT22;697;51.114;6.542;2022-10-17T16:25:33;19.80;99.90
1405;DHT22;697;51.114;6.542;2022-10-17T16:28:00;19.80;99.90
1405;DHT22;697;51.114;6.542;2022-10-17T16:30:29;19.80;99.90
1405;DHT22;697;51.114;6.542;2022-10-17T16:32:57;19.80;99.90
1405;DHT22;697;51.114;6.542;2022-10-17T16:35:26;19.70;99.90
1405;DHT22;697;51.114;6.542;2022-10-17T16:37:52;19.70;99.90
1405;DHT22;697;51.114;6.542;2022-10-17T16:40:20;19.70;99.90
1405;DHT22;697;51.114;6.542;2022-10-17T16:42:47;19.70;99.90
1405;DHT22;697;51.114;6.542;2022-10-17T16:45:16;19.70;99.90
1405;DHT22;697;51.114;6.542;2022-10-17T16:47:44;19.70;99.90
1405;DHT22;697;51.114;6.542;2022-10-17T16:50:12;19.70;99.90